Date,TemperatureHighF,TemperatureAvgF,TemperatureLowF,DewpointHighF,DewpointAvgF,DewpointLowF,HumidityHigh,HumidityAvg,HumidityLow,PressureMaxIn,PressureMinIn,WindSpeedMaxMPH,WindSpeedAvgMPH,GustSpeedMaxMPH,PrecipitationSumIn
2013-1-1,34,18,12,29,16,10,94,90,73,0.00,40.00,0,0,2,0.00
2013-1-2,16,11,6,12,8,2,91,87,84,0.00,40.00,0,0,0,0.00
2013-1-3,15,12,9,12,9,5,88,87,85,0.00,40.00,0,0,0,0.00
2013-1-4,33,20,10,30,18,7,97,91,86,0.00,40.00,0,0,2,0.00
2013-1-5,24,20,16,21,17,13,94,91,86,0.00,40.00,0,0,2,0.00
2013-1-6,34,27,21,25,21,17,95,80,56,0.00,40.00,5,2,13,0.00
2013-1-7,39,31,24,34,27,15,97,84,49,0.00,40.00,12,6,54,0.01
2013-1-8,38,32,24,34,28,15,98,85,49,0.00,40.00,9,4,27,0.01
2013-1-9,38,34,22,31,22,8,75,62,50,0.00,40.00,12,7,30,0.00
2013-1-10,32,19,13,13,11,8,92,71,45,0.00,40.00,3,1,9,0.00
2013-1-11,29,15,9,11,8,5,92,75,46,0.00,40.00,2,1,6,0.00
2013-1-12,27,12,7,11,6,0,89,77,47,0.00,40.00,3,0,6,0.00
2013-1-13,24,14,8,10,6,2,84,71,53,0.00,40.00,2,1,6,0.00
2013-1-14,32,22,17,21,15,9,95,77,62,0.00,40.00,3,1,8,0.00
2013-1-28,29,27,26,22,21,19,84,79,65,0.00,40.00,6,3,24,0.00
2013-1-29,42,32,27,28,24,20,89,74,55,0.00,40.00,4,2,15,0.04
2013-1-30,48,37,31,28,26,22,79,66,46,0.00,40.00,5,3,24,0.04
2013-1-31,40,36,30,29,27,23,83,71,60,0.00,40.00,5,2,20,0.00
2013-2-1,47,33,27,27,25,22,95,73,46,0.00,40.00,3,1,7,0.00
2013-2-2,51,33,29,29,21,16,80,60,38,0.00,40.00,2,1,8,0.00
2013-2-3,37,32,28,27,25,18,88,75,47,0.00,40.00,5,2,14,0.00
2013-2-4,44,36,28,31,26,23,93,68,50,0.00,40.00,6,2,14,0.00
2013-2-5,40,32,27,29,25,21,93,78,54,0.00,40.00,6,3,18,0.00
2013-2-6,37,31,27,27,24,19,95,77,52,0.00,40.00,6,3,23,0.01
2013-2-7,39,27,21,26,21,15,96,78,46,0.00,40.00,4,2,13,0.01
2013-2-8,38,24,19,17,14,9,82,65,33,0.00,40.00,3,1,8,0.01
2013-2-9,43,28,21,25,20,14,90,72,46,0.00,40.00,3,1,7,0.01
2013-2-10,47,31,24,23,20,15,85,63,38,0.00,40.00,3,1,7,0.00
2013-2-11,42,30,24,27,22,15,87,73,52,0.00,40.00,4,2,10,0.00
2013-2-12,42,35,27,29,24,15,81,65,52,0.00,40.00,9,4,36,0.00
2013-2-13,44,35,24,28,22,19,82,61,43,0.00,40.00,10,4,36,0.00
2013-2-14,46,33,23,29,25,19,95,73,51,0.00,40.00,3,1,7,0.00
2013-2-15,51,34,28,32,29,27,97,84,48,0.00,40.00,2,1,5,0.01
2013-2-16,43,33,28,32,25,18,97,76,43,0.00,40.00,8,4,27,0.01
2013-2-17,36,28,20,19,17,14,86,65,50,0.00,40.00,5,2,15,0.00
2013-2-18,35,24,20,23,19,16,95,82,61,0.00,40.00,2,1,8,0.00
2013-2-19,37,24,20,22,19,17,94,83,46,0.00,40.00,3,1,10,0.01
2013-2-20,38,23,16,20,17,13,94,78,46,0.00,40.00,4,1,13,0.01
2013-2-21,35,28,21,22,19,16,80,69,54,0.00,40.00,7,4,29,0.00
2013-2-22,36,30,23,30,24,14,88,77,63,0.00,40.00,9,5,43,0.09
2013-2-23,40,27,21,19,16,14,84,62,42,0.00,40.00,9,4,37,0.01
2013-2-24,34,28,19,25,21,16,86,76,65,0.00,40.00,2,1,9,0.01
2013-2-25,31,27,22,24,20,15,90,75,53,0.00,40.00,10,4,39,0.04
2013-2-26,40,29,20,20,16,9,76,59,42,0.00,40.00,3,2,11,0.01
2013-2-27,43,32,25,26,22,17,86,67,43,0.00,40.00,5,3,25,0.01
2013-2-28,38,33,28,36,30,21,98,88,67,0.00,40.00,5,2,21,0.34
2013-3-1,49,42,38,36,33,28,89,72,54,0.00,40.00,10,6,41,0.02
2013-3-2,51,39,28,30,26,20,77,62,31,0.00,40.00,7,4,28,0.00
2013-3-3,36,27,21,21,13,9,79,58,35,0.00,40.00,6,3,19,0.01
2013-3-4,36,25,18,19,14,11,81,64,45,0.00,40.00,4,2,13,0.01
2013-3-5,28,24,20,24,18,15,94,79,59,0.00,40.00,3,1,8,0.00
2013-3-6,32,28,23,29,25,22,96,89,81,0.00,40.00,6,1,19,0.00
2013-3-7,37,30,24,30,25,23,96,81,68,0.00,40.00,6,3,21,0.18
2013-3-8,45,30,21,32,25,20,97,83,57,0.00,40.00,3,1,7,0.19
2013-3-9,51,34,20,22,18,14,90,56,26,0.00,40.00,4,1,9,0.13
2013-3-10,48,37,28,29,22,11,94,56,39,0.00,40.00,4,1,11,0.05
2013-3-11,47,35,27,27,21,5,94,60,33,0.00,40.00,4,2,10,0.00
2013-3-12,49,40,31,35,33,26,88,76,55,0.00,40.00,8,4,26,0.01
2013-3-13,51,44,39,38,35,32,82,71,54,0.00,40.00,7,4,24,0.01
2013-3-14,55,45,38,38,33,26,80,65,37,0.00,40.00,8,3,29,0.00
2013-3-15,50,41,37,32,30,28,77,66,45,0.00,40.00,8,4,29,0.00
2013-3-16,42,34,25,31,25,15,79,68,48,0.00,40.00,8,5,35,0.02
2013-3-17,36,28,24,18,14,12,74,57,39,0.00,40.00,8,5,31,0.02
2013-3-18,39,29,21,19,16,12,80,59,34,0.00,40.00,11,6,37,0.00
2013-3-19,36,26,20,25,17,6,94,70,44,0.00,40.00,4,1,11,0.00
2013-3-20,42,33,23,34,28,11,96,84,58,0.00,40.00,10,6,44,0.57
2013-3-21,36,28,21,20,14,11,79,57,38,0.00,40.00,9,5,31,0.02
2013-3-22,33,22,16,19,12,6,82,66,47,0.00,40.00,3,2,9,0.02
2013-3-23,34,23,14,18,13,10,86,67,50,0.00,40.00,4,1,11,0.05
2013-3-24,39,25,16,18,14,12,85,65,37,0.00,40.00,4,2,14,0.03
2013-3-25,42,28,20,19,14,11,74,59,35,0.00,40.00,5,2,11,0.00
2013-3-26,51,35,24,27,21,17,79,59,36,0.00,40.00,4,2,10,0.00
2013-3-27,42,37,34,33,27,25,77,69,58,0.00,40.00,3,1,8,0.00
2013-3-28,50,42,37,34,31,26,76,65,53,0.00,40.00,3,2,8,0.01
2013-3-29,55,39,32,31,27,23,89,66,34,0.00,40.00,4,1,9,0.00
2013-3-30,57,42,34,34,29,-100,82,63,40,0.00,40.00,4,2,10,0.00
2013-3-31,60,46,37,34,32,28,84,61,31,0.00,40.00,4,2,13,0.00
2013-4-1,65,49,40,35,32,28,75,53,30,0.00,40.00,4,1,11,0.00
2013-4-2,59,45,33,36,33,28,88,65,40,0.00,40.00,4,2,15,0.00
2013-4-3,57,42,32,33,29,24,90,63,29,0.00,40.00,4,2,15,0.00
2013-4-4,43,42,40,41,36,28,95,81,60,0.00,40.00,4,2,15,0.62
2013-4-5,45,39,36,38,35,32,94,84,70,0.00,40.00,6,4,25,0.20
2013-4-6,41,36,31,33,29,24,94,75,55,0.00,40.00,7,4,21,0.09
2013-4-7,42,32,27,31,27,21,96,80,61,0.00,40.00,9,3,28,0.39
2013-4-8,43,33,26,32,27,21,94,79,57,0.00,40.00,4,2,9,0.01
2013-4-9,49,36,27,37,29,24,94,77,44,0.00,40.00,4,2,10,0.01
2013-4-10,46,42,34,40,34,23,89,75,55,0.00,40.00,8,4,40,0.11
2013-4-11,45,35,28,27,23,16,74,61,48,0.00,40.00,5,4,19,0.08
2013-4-12,41,31,26,32,23,15,97,72,52,0.00,40.00,4,1,30,0.05
2013-4-13,35,30,24,25,19,13,75,64,57,0.00,40.00,8,5,48,0.02
2013-4-14,39,28,22,26,20,14,94,75,39,0.00,40.00,4,2,9,0.00
2013-4-15,37,29,25,29,26,23,96,87,64,0.00,40.00,3,2,10,0.41
2013-4-16,40,30,24,24,19,13,94,68,32,0.00,40.00,5,2,16,0.09
2013-4-17,44,32,23,24,20,14,79,64,39,0.00,40.00,3,1,10,0.08
2013-4-18,49,38,29,34,29,23,82,69,54,0.00,40.00,7,2,25,0.00
2013-4-19,50,42,36,35,32,27,87,70,54,0.00,40.00,7,4,25,0.00
2013-4-20,50,40,34,31,28,26,78,63,44,0.00,40.00,6,4,22,0.00
2013-4-21,46,34,28,30,26,23,91,75,41,0.00,40.00,6,2,23,0.08
2013-4-22,46,33,25,25,15,3,90,53,17,0.00,40.00,4,2,10,0.07
2013-4-23,47,36,29,24,18,12,66,50,26,0.00,40.00,4,2,12,0.04
2013-4-24,59,44,32,27,22,16,71,46,19,0.00,40.00,5,3,14,0.00
2013-4-25,63,48,36,34,29,19,69,48,34,0.00,40.00,5,3,15,0.00
2013-4-26,65,52,41,33,27,16,72,42,19,0.00,40.00,6,3,18,0.00
2013-4-27,51,46,40,33,26,13,72,48,25,0.00,40.00,11,6,49,0.00
2013-4-28,50,41,35,31,27,24,79,58,38,0.00,40.00,10,5,29,0.00
2013-4-29,41,35,26,32,24,18,87,66,42,0.00,40.00,11,6,35,0.07
2013-4-30,43,31,23,23,16,10,78,56,25,0.00,40.00,6,2,16,0.01
2013-5-1,50,36,25,22,18,14,67,50,29,0.00,40.00,5,2,13,0.00
2013-5-2,58,45,35,33,24,18,52,44,31,0.00,40.00,5,2,12,0.00
2013-5-3,57,44,38,29,27,25,68,52,30,0.00,40.00,4,2,13,0.00
2013-5-9,77,65,57,45,41,34,62,43,21,0.00,40.00,6,4,15,0.00
2013-5-10,85,67,52,44,36,-100,73,39,15,0.00,40.00,7,4,11,0.03
2013-5-11,78,65,56,45,40,-100,56,42,25,0.00,40.00,6,4,12,0.03
2013-5-12,63,59,52,50,44,42,77,59,47,0.00,40.00,6,5,23,0.00
2013-5-13,55,49,38,46,41,29,91,73,59,0.00,40.00,7,4,28,0.20
2013-5-14,56,45,35,35,32,30,90,64,40,0.00,40.00,9,4,17,0.09
2013-5-15,62,49,38,41,35,31,86,60,32,0.00,40.00,5,3,14,0.00
2013-5-16,62,45,42,47,22,-100,88,73,44,0.00,40.00,6,3,13,0.14
2013-5-17,57,49,43,45,39,-100,94,75,58,0.00,40.00,7,4,12,0.01
2013-5-18,59,49,42,38,36,34,77,63,45,0.00,40.00,11,6,18,0.01
2013-5-19,62,50,42,38,36,33,73,60,41,0.00,40.00,10,6,18,0.00
2013-5-20,71,55,40,41,37,33,85,55,25,0.00,40.00,5,3,13,0.00
2013-5-21,54,45,39,44,39,32,98,80,56,0.00,40.00,6,3,14,0.36
2013-5-22,46,39,35,40,35,31,97,85,69,0.00,40.00,5,3,12,0.34
2013-5-23,48,41,35,43,37,33,98,89,70,0.00,40.00,3,2,9,0.22
2013-5-24,57,44,37,44,38,35,98,83,53,0.00,40.00,6,2,12,0.33
2013-5-25,42,41,41,35,34,34,77,77,76,0.00,40.00,4,3,11,0.23